Terminal Aerodrome Forecast
Issued by NWS Detroit/Pontiac, MI

Home | Current Version | Previous Version | Text Only | Print | Product List | Glossary On
Versions: 1 2 3 4 5 6 7 8 9 10 11 12 13 14 15 16 17 18 19 20 21
000
FTUS43 KDTX 240520
TAFFNT
TAF
KFNT 240520Z 2406/2506 06010KT 5SM BR SCT012 BKN040 OVC060
      TEMPO 2406/2409 5SM -SHRA BR SCT010 BKN030 OVC045
     FM240900 07010KT 6SM -SHRA BR BKN008 OVC018
     FM241200 09012KT 2SM -DZ BR OVC004
     FM241600 11012KT 3SM BR BKN008 OVC015
     FM242000 13008KT 4SM -RA BR OVC018
     FM250100 18012G18KT 5SM -SHRA SCT008 OVC018 PROB30 2503/2506
      3SM TSRA OVC008CB=

USA.gov is the U.S. government's official web portal to all federal, state and local government web resources and services.